Time;durP1;ratioP1;P1;durP2;ratioP2;P2;SDS_P1;SDS_P2;PMS_P1;PMS_P2;Temp;Humidity;BMP_temperature;BMP_pressure;BME280_temperature;BME280_humidity;BME280_pressure;Samples;Min_cycle;Max_cycle;Signal;HPM_P1;HPM_P2
2022/04/01 00:02:25;;;;;;;7.47;6.78;;;;;;;0.81;87.73;100200.66;5017173;28;20465;-79
2022/04/01 00:04:51;;;;;;;7.38;6.55;;;;;;;0.80;87.73;100196.34;5013949;28;20441;-79
2022/04/01 00:07:17;;;;;;;7.97;6.05;;;;;;;0.83;88.00;100200.59;5014131;28;20034;-79
2022/04/01 00:09:42;;;;;;;8.98;5.57;;;;;;;0.79;87.73;100205.09;5013986;28;20022;-79
2022/04/01 00:12:09;;;;;;;6.45;5.85;;;;;;;0.75;87.97;100211.41;5014587;28;20528;-79
2022/04/01 00:14:35;;;;;;;7.07;5.30;;;;;;;0.73;87.74;100208.88;5013629;28;20022;-79
2022/04/01 00:17:00;;;;;;;5.95;5.35;;;;;;;0.71;87.78;100213.28;5013995;28;20638;-79
2022/04/01 00:19:27;;;;;;;6.07;5.47;;;;;;;0.67;87.82;100214.38;5013535;28;20222;-79
2022/04/01 00:21:53;;;;;;;5.78;4.97;;;;;;;0.68;87.93;100220.44;5013114;28;20117;-79
2022/04/01 00:24:18;;;;;;;7.50;5.53;;;;;;;0.65;87.90;100217.94;5012981;28;20037;-79
2022/04/01 00:26:45;;;;;;;5.60;5.10;;;;;;;0.66;87.77;100222.28;5012776;28;20128;-79
2022/04/01 00:29:17;;;;;;;6.32;4.82;;;;;;;0.55;87.93;100215.78;5013890;28;20022;-79
2022/04/01 00:31:46;;;;;;;5.68;4.60;;;;;;;0.54;87.75;100221.91;5013210;28;20037;-80
2022/04/01 00:34:15;;;;;;;;;;;;;;;0.59;86.79;100221.69;5012928;28;20500;-79
2022/04/01 00:36:40;;;;;;;5.87;4.30;;;;;;;0.51;87.76;100223.81;5027891;28;19913;-79
2022/04/01 00:39:05;;;;;;;4.57;4.18;;;;;;;0.49;87.97;100229.09;5017361;28;20048;-79
2022/04/01 00:41:31;;;;;;;5.63;4.97;;;;;;;0.49;87.63;100225.66;5017837;28;20026;-79
2022/04/01 00:44:15;;;;;;;4.88;4.47;;;;;;;0.47;88.50;100232.72;5011379;28;20398;-79
2022/04/01 00:46:47;;;;;;;4.95;4.35;;;;;;;0.42;88.55;100232.03;5011042;28;20036;-80
2022/04/01 00:49:13;;;;;;;5.18;4.63;;;;;;;0.43;88.57;100242.44;5010888;28;20049;-79
2022/04/01 00:51:41;;;;;;;5.57;5.00;;;;;;;0.41;89.03;100231.22;5010853;28;20025;-80
2022/04/01 00:54:07;;;;;;;7.00;4.80;;;;;;;0.39;88.26;100237.44;5010837;28;20034;-79
2022/04/01 00:56:34;;;;;;;5.07;4.68;;;;;;;0.36;88.56;100239.25;5010777;28;20034;-79
2022/04/01 00:59:00;;;;;;;5.80;4.72;;;;;;;0.35;88.46;100248.00;5010756;28;20025;-79
2022/04/01 01:01:26;;;;;;;6.15;4.90;;;;;;;0.34;88.86;100242.84;5010650;28;20061;-78
2022/04/01 01:03:52;;;;;;;5.82;5.22;;;;;;;0.36;88.68;100252.31;5010733;28;20061;-79
2022/04/01 01:06:19;;;;;;;5.63;4.85;;;;;;;0.39;89.07;100253.94;5011729;28;20370;-79
2022/04/01 01:08:45;;;;;;;5.57;4.90;;;;;;;0.38;88.71;100254.00;5030293;28;20033;-78
2022/04/01 01:11:10;;;;;;;4.97;4.57;;;;;;;0.40;88.71;100244.34;5029008;28;20030;-79
2022/04/01 01:13:36;;;;;;;7.57;4.45;;;;;;;0.40;88.62;100244.34;5024258;28;20026;-78
2022/04/01 01:16:01;;;;;;;4.90;4.50;;;;;;;0.37;88.96;100245.34;5010370;28;20496;-78
2022/04/01 01:18:26;;;;;;;4.93;4.35;;;;;;;0.37;89.02;100250.56;5010257;28;20453;-79
2022/04/01 01:20:52;;;;;;;5.35;4.03;;;;;;;0.36;89.12;100249.69;5010446;28;20118;-79
2022/04/01 01:23:17;;;;;;;4.85;4.35;;;;;;;0.37;88.94;100255.78;5010376;28;20040;-78
2022/04/01 01:25:43;;;;;;;4.53;4.13;;;;;;;0.35;88.77;100244.53;5010147;28;20065;-79
2022/04/01 01:28:08;;;;;;;5.05;3.95;;;;;;;0.36;88.63;100254.91;5010210;28;20033;-79
2022/04/01 01:30:34;;;;;;;4.70;4.30;;;;;;;0.34;89.01;100250.69;5010424;28;20445;-79
2022/04/01 01:33:01;;;;;;;4.95;4.18;;;;;;;0.32;88.96;100248.13;5010419;28;20040;-79
2022/04/01 01:35:28;;;;;;;6.43;4.25;;;;;;;0.30;89.10;100249.97;5027314;28;20097;-79
2022/04/01 01:37:54;;;;;;;4.57;4.10;;;;;;;0.31;89.06;100249.03;5030552;28;20030;-79
2022/04/01 01:40:20;;;;;;;5.20;4.40;;;;;;;0.27;89.31;100251.88;5045240;28;20558;-79
2022/04/01 01:42:45;;;;;;;5.22;4.53;;;;;;;0.27;88.59;100250.09;5040397;28;20040;-79
2022/04/01 01:45:10;;;;;;;5.43;4.70;;;;;;;0.25;88.81;100251.94;5030338;28;20100;-79
2022/04/01 01:47:36;;;;;;;4.65;4.25;;;;;;;0.25;88.88;100246.72;5014493;28;20037;-79
2022/04/01 01:55:30;;;;;;;6.28;4.90;;;;;;;0.24;88.93;100263.28;5012859;28;20053;-79
2022/04/01 01:57:56;;;;;;;5.03;4.53;;;;;;;0.25;88.91;100259.78;5011578;28;20473;-79
2022/04/01 02:00:22;;;;;;;6.22;4.30;;;;;;;0.23;89.04;100269.41;5011048;28;20033;-80
2022/04/01 02:02:49;;;;;;;5.20;4.70;;;;;;;0.23;89.08;100265.97;5011320;28;20037;-79
2022/04/01 02:05:16;;;;;;;5.32;4.82;;;;;;;0.18;89.58;100259.19;5010937;28;20030;-79
2022/04/01 02:07:41;;;;;;;7.10;4.80;;;;;;;0.23;89.52;100268.59;5011168;28;20025;-79
2022/04/01 02:10:07;;;;;;;7.03;4.63;;;;;;;0.20;89.11;100269.59;5038456;28;20028;-79
2022/04/01 02:12:32;;;;;;;5.97;4.60;;;;;;;0.21;89.39;100267.81;5050449;28;20025;-79
2022/04/01 02:14:59;;;;;;;4.57;4.18;;;;;;;0.22;88.70;100266.88;5017018;28;20034;-79
2022/04/01 02:17:24;;;;;;;5.53;4.53;;;;;;;0.20;88.57;100277.41;5011071;28;20030;-80
2022/04/01 02:19:50;;;;;;;6.20;5.00;;;;;;;0.18;89.06;100277.47;5010780;28;20042;-79
2022/04/01 02:22:15;;;;;;;5.95;4.80;;;;;;;0.19;89.19;100280.94;5010810;28;20045;-79
2022/04/01 02:24:41;;;;;;;5.30;4.80;;;;;;;0.15;89.25;100274.13;5063238;23;20042;-84
2022/04/01 02:27:07;;;;;;;6.53;4.80;;;;;;;0.21;89.04;100286.09;5046054;28;20033;-84
2022/04/01 02:29:33;;;;;;;6.75;4.78;;;;;;;0.21;89.31;100296.53;5022470;28;20024;-84
2022/04/01 02:31:58;;;;;;;5.63;4.93;;;;;;;0.17;88.99;100277.53;5035117;28;20469;-84
2022/04/01 02:34:25;;;;;;;4.93;4.50;;;;;;;0.18;89.29;100287.94;5036596;28;20026;-84
2022/04/01 02:36:51;;;;;;;5.32;4.80;;;;;;;0.20;89.19;100297.44;5056484;28;20438;-83
2022/04/01 02:39:17;;;;;;;4.78;4.38;;;;;;;0.21;88.71;100294.75;5048514;28;20582;-84
2022/04/01 02:41:44;;;;;;;5.43;4.93;;;;;;;0.20;89.36;100300.91;5034767;28;20026;-83
2022/04/01 02:44:12;;;;;;;5.38;4.88;;;;;;;0.17;88.79;100291.44;5033442;28;20113;-84
2022/04/01 02:46:39;;;;;;;5.35;4.40;;;;;;;0.20;89.04;100313.09;5034590;28;20117;-84
2022/04/01 02:49:06;;;;;;;5.60;4.65;;;;;;;0.18;88.42;100300.97;5034791;28;20068;-84
2022/04/01 02:51:39;;;;;;;5.47;4.82;;;;;;;0.21;88.89;100309.59;5033034;28;20033;-84
2022/04/01 02:54:06;;;;;;;5.60;5.10;;;;;;;0.20;89.17;100313.09;5034892;28;20029;-83
2022/04/01 02:56:32;;;;;;;5.38;4.88;;;;;;;0.20;89.08;100318.34;5033240;28;20025;-84
2022/04/01 02:58:59;;;;;;;6.07;5.40;;;;;;;0.18;89.02;100323.63;5034416;28;20026;-84
2022/04/01 03:01:25;;;;;;;5.57;5.07;;;;;;;0.19;88.92;100322.72;5034367;28;20033;-83
2022/04/01 03:03:50;;;;;;;5.85;5.35;;;;;;;0.12;89.79;100326.50;5038243;28;20024;-84
2022/04/01 03:06:16;;;;;;;6.00;5.40;;;;;;;0.11;89.06;100320.41;5053511;28;20025;-84
2022/04/01 03:08:43;;;;;;;5.63;5.13;;;;;;;0.14;89.18;100325.50;5052499;28;20033;-84
2022/04/01 03:11:09;;;;;;;8.02;5.20;;;;;;;0.12;89.08;100322.13;5068218;28;20063;-84
2022/04/01 03:13:34;;;;;;;5.85;5.25;;;;;;;0.14;89.32;100332.50;5050456;28;20037;-84
2022/04/01 03:15:59;;;;;;;6.15;5.63;;;;;;;0.16;89.05;100334.13;5033130;28;20037;-84
2022/04/01 03:18:25;;;;;;;6.60;5.82;;;;;;;0.11;89.46;100320.41;5032989;28;20029;-84
2022/04/01 03:20:50;;;;;;;6.82;6.10;;;;;;;0.13;88.71;100328.19;5032133;28;20049;-84
2022/04/01 03:23:15;;;;;;;7.38;6.03;;;;;;;0.08;88.95;100337.97;5034094;28;20100;-84
2022/04/01 03:25:41;;;;;;;7.10;6.40;;;;;;;0.08;88.89;100332.75;5033757;28;20083;-84
2022/04/01 03:28:07;;;;;;;7.60;6.80;;;;;;;0.05;89.03;100343.31;5033858;28;20048;-84
2022/04/01 03:30:32;;;;;;;7.97;6.72;;;;;;;0.04;88.84;100350.31;5034207;28;20036;-85
2022/04/01 03:32:58;;;;;;;7.55;6.78;;;;;;;0.05;88.81;100345.94;5032675;28;20041;-84
2022/04/01 03:35:24;;;;;;;7.57;6.88;;;;;;;0.05;89.17;100353.75;5034005;28;20025;-84
2022/04/01 03:37:50;;;;;;;7.10;6.45;;;;;;;0.04;89.37;100350.31;5031664;28;20028;-85
2022/04/01 03:40:16;;;;;;;7.43;6.72;;;;;;;0.01;89.45;100355.66;5034125;28;20030;-84
2022/04/01 03:42:45;;;;;;;7.78;7.07;;;;;;;0.01;89.42;100355.66;5033629;28;20112;-84
2022/04/01 03:45:13;;;;;;;7.60;6.90;;;;;;;0.03;89.25;100359.03;5033624;28;20041;-84
2022/04/01 03:47:44;;;;;;;7.25;6.55;;;;;;;0.03;89.33;100366.03;5033847;28;20528;-84
2022/04/01 03:50:11;;;;;;;7.93;7.13;;;;;;;0.01;89.45;100355.66;5030463;28;20030;-84
2022/04/01 03:52:38;;;;;;;7.28;6.57;;;;;;;0.01;89.63;100366.09;5024916;28;20040;-84
2022/04/01 03:55:10;;;;;;;6.72;6.15;;;;;;;0.02;89.18;100365.19;5032112;28;20017;-86
2022/04/01 03:57:38;;;;;;;7.05;6.40;;;;;;;0.01;89.47;100370.47;5031985;28;20020;-86
2022/04/01 04:00:07;;;;;;;7.38;6.57;;;;;;;-0.01;89.68;100380.97;5032426;28;20033;-86
2022/04/01 04:02:34;;;;;;;6.78;6.18;;;;;;;-0.01;89.85;100379.22;5031845;28;20029;-85
2022/04/01 04:05:02;;;;;;;6.80;6.20;;;;;;;-0.02;89.95;100382.75;5032035;28;20048;-85
2022/04/01 04:07:31;;;;;;;6.88;6.18;;;;;;;-0.01;89.48;100392.25;5031714;28;20088;-85
2022/04/01 04:09:58;;;;;;;6.78;6.18;;;;;;;-0.06;89.44;100383.78;5028389;28;20026;-85
2022/04/01 04:12:27;;;;;;;6.82;6.13;;;;;;;-0.06;90.18;100394.22;5014510;28;20382;-85
2022/04/01 04:14:53;;;;;;;6.88;6.18;;;;;;;-0.05;89.84;100400.28;5014201;28;20041;-85
2022/04/01 04:17:35;;;;;;;6.68;6.07;;;;;;;-0.05;89.64;100397.66;5014372;28;20022;-86
2022/04/01 04:20:07;;;;;;;6.60;6.00;;;;;;;-0.08;90.27;100400.41;5021025;28;20504;-86
2022/04/01 04:22:47;;;;;;;8.55;5.68;;;;;;;-0.05;90.40;100415.94;5049104;28;20500;-85
2022/04/01 04:25:14;;;;;;;6.75;6.15;;;;;;;-0.09;90.45;100409.16;5031861;28;20608;-85
2022/04/01 04:27:51;;;;;;;9.00;6.53;;;;;;;-0.08;89.87;100419.53;5031668;28;20034;-85
2022/04/01 04:30:30;;;;;;;6.47;5.88;;;;;;;-0.11;90.08;100417.03;5013295;28;20088;-85
2022/04/01 04:33:03;;;;;;;6.50;5.85;;;;;;;-0.11;89.88;100417.03;5013313;28;20040;-85
2022/04/01 04:35:37;;;;;;;6.88;5.90;;;;;;;-0.08;89.81;100426.53;5028491;28;20033;-85
2022/04/01 04:38:03;;;;;;;6.35;5.75;;;;;;;-0.11;89.48;100429.25;5028208;28;20018;-85
2022/04/01 04:40:31;;;;;;;6.63;6.03;;;;;;;-0.11;90.13;100432.69;5028467;28;20032;-84
2022/04/01 04:43:00;;;;;;;6.63;6.03;;;;;;;-0.11;90.15;100426.63;5028951;28;20503;-85
2022/04/01 04:45:27;;;;;;;6.53;5.93;;;;;;;-0.10;89.60;100444.84;5028114;28;20462;-83
2022/04/01 04:47:57;;;;;;;7.25;6.55;;;;;;;-0.06;89.29;100453.41;5028353;28;20492;-83
2022/04/01 04:50:23;;;;;;;8.45;6.47;;;;;;;-0.08;89.88;100453.47;5028193;28;20547;-84
2022/04/01 04:52:54;;;;;;;7.60;6.47;;;;;;;-0.09;89.79;100453.53;5011608;28;20065;-84
2022/04/01 04:55:22;;;;;;;6.55;5.80;;;;;;;-0.09;89.57;100456.97;4995779;28;20535;-85
2022/04/01 04:57:57;;;;;;;7.88;6.88;;;;;;;-0.11;90.16;100468.41;5011156;28;20094;-84
2022/04/01 05:00:22;;;;;;;7.40;6.70;;;;;;;-0.11;89.68;100474.47;5011296;28;20045;-84
2022/04/01 05:03:31;;;;;;;7.43;6.63;;;;;;;-0.07;89.53;100473.44;5011556;28;20021;-85
2022/04/01 05:06:06;;;;;;;7.87;6.33;;;;;;;-0.10;89.21;100485.75;5022389;28;20080;-85
2022/04/01 05:09:10;;;;;;;7.05;6.35;;;;;;;-0.05;88.54;100489.91;5012828;28;20029;-85
2022/04/01 05:11:39;;;;;;;6.75;6.05;;;;;;;-0.09;88.80;100500.53;5013125;28;20026;-85
2022/04/01 05:14:38;;;;;;;6.60;6.00;;;;;;;-0.06;89.27;100503.03;5012606;28;20034;-85
2022/04/01 05:17:07;;;;;;;6.95;6.22;;;;;;;-0.09;88.76;100501.34;5012546;28;20033;-84
2022/04/01 05:19:36;;;;;;;6.07;5.50;;;;;;;-0.07;88.47;100515.19;5020627;28;20060;-84
2022/04/01 05:22:11;;;;;;;6.35;5.75;;;;;;;-0.04;88.62;100509.03;5032389;28;20025;-85
2022/04/01 05:24:46;;;;;;;7.32;6.18;;;;;;;-0.06;87.78;100511.69;5031488;28;20034;-85
2022/04/01 05:27:22;;;;;;;8.05;5.70;;;;;;;-0.07;88.17;100515.19;5031926;28;20079;-85
2022/04/01 05:30:13;;;;;;;6.53;5.90;;;;;;;-0.04;87.95;100520.31;5033550;28;20045;-84
2022/04/01 05:33:00;;;;;;;9.45;6.00;;;;;;;-0.06;87.75;100522.13;5032469;28;20037;-84
2022/04/01 05:35:31;;;;;;;6.47;5.88;;;;;;;-0.04;87.82;100520.31;5012488;28;20026;-85
2022/04/01 05:37:59;;;;;;;7.75;6.75;;;;;;;-0.05;87.75;100526.47;5028738;28;20030;-85
2022/04/01 05:40:26;;;;;;;6.22;5.70;;;;;;;-0.05;87.98;100528.19;5028789;28;20040;-85
2022/04/01 05:42:55;;;;;;;9.18;6.85;;;;;;;-0.01;88.01;100535.03;5012542;28;20097;-85
2022/04/01 05:45:21;;;;;;;7.75;6.60;;;;;;;-0.02;87.67;100539.41;5012085;28;20069;-85
2022/04/01 05:47:47;;;;;;;7.60;6.25;;;;;;;0.00;88.25;100549.78;5012285;28;20560;-85
2022/04/01 05:50:18;;;;;;;7.47;6.43;;;;;;;-0.01;88.02;100550.69;5014913;28;20687;-85
2022/04/01 05:52:47;;;;;;;6.72;6.07;;;;;;;0.00;87.85;100557.63;5012437;28;20072;-85
2022/04/01 05:55:15;;;;;;;7.00;6.28;;;;;;;-0.02;86.85;100560.28;5015405;28;20059;-85
2022/04/01 05:57:40;;;;;;;5.97;5.38;;;;;;;-0.01;86.78;100572.41;5023682;28;20095;-85
2022/04/01 06:00:07;;;;;;;7.03;6.20;;;;;;;0.00;86.52;100570.69;5043657;28;20021;-85
2022/04/01 06:03:14;;;;;;;7.20;6.50;;;;;;;0.01;86.83;100579.34;5034523;28;20029;-86
2022/04/01 06:06:11;;;;;;;7.22;6.10;;;;;;;0.01;86.79;100574.13;5049661;28;20040;-85
2022/04/01 06:08:55;;;;;;;8.10;6.53;;;;;;;-0.01;87.04;100585.47;5047971;28;20029;-84
2022/04/01 06:11:45;;;;;;;7.47;6.32;;;;;;;-0.01;86.85;100589.84;5042810;28;20034;-85
2022/04/01 06:14:16;;;;;;;5.80;5.28;;;;;;;-0.01;86.55;100597.69;5055046;28;20775;-86
2022/04/01 06:16:52;;;;;;;8.35;6.18;;;;;;;-0.02;85.91;100609.03;5032133;28;20060;-85
2022/04/01 06:19:26;;;;;;;7.82;5.85;;;;;;;-0.04;86.41;100613.47;5052672;28;20480;-85
2022/04/01 06:22:02;;;;;;;6.28;5.68;;;;;;;-0.05;86.00;100616.97;5036217;28;20087;-85
2022/04/01 06:24:44;;;;;;;6.65;5.75;;;;;;;-0.05;87.23;100616.97;5016146;28;20038;-85
2022/04/01 06:27:13;;;;;;;5.82;5.32;;;;;;;-0.04;86.55;100629.97;5015842;28;20496;-85
2022/04/01 06:29:40;;;;;;;6.40;5.80;;;;;;;-0.03;86.17;100626.47;5050838;28;20017;-85
2022/04/01 06:32:12;;;;;;;8.23;5.63;;;;;;;-0.06;86.59;100623.94;5041387;28;20041;-85
2022/04/01 06:35:14;;;;;;;7.28;5.80;;;;;;;-0.02;86.61;100646.44;5051264;28;20025;-83
2022/04/01 06:37:47;;;;;;;6.38;5.70;;;;;;;-0.05;86.51;100635.25;5051097;28;20064;-85
2022/04/01 06:40:14;;;;;;;6.28;5.68;;;;;;;-0.06;86.81;100642.22;5054440;28;20040;-83
2022/04/01 06:42:40;;;;;;;6.13;5.55;;;;;;;-0.07;86.09;100645.72;5054488;28;20068;-84
2022/04/01 06:45:11;;;;;;;6.65;5.35;;;;;;;-0.07;85.93;100650.94;5052284;28;20071;-83
2022/04/01 06:47:37;;;;;;;7.13;5.55;;;;;;;-0.09;85.92;100657.16;5051190;28;20037;-85
2022/04/01 06:50:03;;;;;;;6.78;5.22;;;;;;;-0.09;86.08;100668.44;5058194;28;20041;-82
2022/04/01 06:52:30;;;;;;;5.90;4.85;;;;;;;-0.10;85.64;100671.97;5056883;28;20048;-83
2022/04/01 06:54:56;;;;;;;6.90;5.22;;;;;;;-0.10;86.05;100676.31;5057758;28;20056;-82
2022/04/01 06:57:22;;;;;;;7.28;5.32;;;;;;;-0.09;85.98;100671.06;5056836;28;20049;-82
2022/04/01 06:59:49;;;;;;;6.20;4.97;;;;;;;-0.09;85.56;100671.06;5057747;28;20037;-84
2022/04/01 07:02:15;;;;;;;5.70;4.85;;;;;;;-0.07;85.15;100674.44;5057329;28;20029;-83
2022/04/01 07:04:40;;;;;;;6.50;5.10;;;;;;;-0.09;85.17;100680.66;5057807;28;20033;-85
2022/04/01 07:07:05;;;;;;;6.25;4.80;;;;;;;-0.07;84.66;100681.44;5081247;28;20035;-81
2022/04/01 07:09:31;;;;;;;5.60;4.57;;;;;;;-0.09;84.57;100684.09;5080717;28;20047;-82
2022/04/01 07:11:59;;;;;;;7.03;4.72;;;;;;;-0.09;85.24;100681.50;5076108;28;20028;-84
2022/04/01 07:14:26;;;;;;;6.63;4.90;;;;;;;-0.08;84.72;100684.97;5074842;28;20048;-84
2022/04/01 07:16:51;;;;;;;5.75;4.80;;;;;;;-0.07;84.87;100681.44;5056058;28;20041;-84
2022/04/01 07:19:16;;;;;;;6.38;4.85;;;;;;;-0.06;84.62;100694.44;5054144;28;20536;-85
2022/04/01 07:21:42;;;;;;;4.70;4.30;;;;;;;-0.05;84.30;100697.91;5051990;28;20077;-82
2022/04/01 07:24:08;;;;;;;9.00;5.32;;;;;;;-0.05;84.62;100701.38;5054021;28;20021;-84
2022/04/01 07:26:34;;;;;;;5.82;5.00;;;;;;;-0.06;84.31;100704.88;5054538;28;20053;-83
2022/04/01 07:28:59;;;;;;;5.25;4.75;;;;;;;-0.05;85.12;100710.94;5058734;28;20071;-84
2022/04/01 07:34:10;;;;;;;6.88;4.68;;;;;;;-0.02;85.14;100714.34;5059113;28;20056;-85
2022/04/01 07:36:36;;;;;;;7.63;4.85;;;;;;;-0.02;84.78;100721.28;5055902;28;20041;-83
2022/04/01 07:39:02;;;;;;;6.95;5.00;;;;;;;-0.01;85.32;100725.63;5051830;28;20017;-83
2022/04/01 07:41:35;;;;;;;6.30;4.72;;;;;;;-0.01;84.87;100723.84;5042146;28;20041;-83
2022/04/01 07:44:01;;;;;;;7.90;5.05;;;;;;;0.03;85.29;100728.97;5037992;28;20017;-84
2022/04/01 07:46:26;;;;;;;8.00;4.43;;;;;;;0.02;84.68;100728.13;5036568;28;20041;-83
2022/04/01 07:48:52;;;;;;;5.22;4.05;;;;;;;0.01;84.07;100739.47;5050446;28;20105;-83
2022/04/01 07:51:17;;;;;;;7.03;4.57;;;;;;;0.02;83.54;100738.56;5055265;28;20071;-84
2022/04/01 07:53:43;;;;;;;6.03;4.20;;;;;;;0.02;83.91;100738.56;5056547;28;20053;-85
2022/04/01 07:56:08;;;;;;;5.05;4.13;;;;;;;0.04;83.93;100751.56;5073738;28;20036;-86
2022/04/01 07:58:34;;;;;;;9.15;4.25;;;;;;;0.04;84.32;100743.75;5068124;28;20041;-85
2022/04/01 08:00:59;;;;;;;8.95;4.32;;;;;;;0.03;84.85;100750.69;5050960;28;20216;-85
2022/04/01 08:03:25;;;;;;;5.97;4.55;;;;;;;0.07;84.02;100759.31;5046473;28;20029;-84
2022/04/01 08:05:50;;;;;;;7.15;3.95;;;;;;;0.06;83.87;100755.81;5013950;28;20029;-82
2022/04/01 08:08:15;;;;;;;4.60;4.18;;;;;;;0.07;84.48;100754.09;5015010;28;20030;-83
2022/04/01 08:10:42;;;;;;;5.85;4.47;;;;;;;0.07;84.74;100757.53;5013109;28;20488;-83
2022/04/01 08:13:09;;;;;;;5.72;4.22;;;;;;;0.09;84.27;100767.94;5014277;28;20036;-83
2022/04/01 08:15:34;;;;;;;6.03;4.25;;;;;;;0.10;84.26;100770.50;5014381;28;20029;-84
2022/04/01 08:18:00;;;;;;;4.57;4.03;;;;;;;0.11;84.66;100768.72;5030791;28;20380;-84
2022/04/01 08:20:26;;;;;;;4.30;3.90;;;;;;;0.11;83.96;100780.03;5030910;28;20033;-84
2022/04/01 08:22:51;;;;;;;6.03;4.38;;;;;;;0.10;84.21;100788.78;5014495;28;20088;-83
2022/04/01 08:25:17;;;;;;;5.25;4.38;;;;;;;0.11;84.30;100780.03;5012938;28;20153;-83
2022/04/01 08:27:45;;;;;;;4.72;4.32;;;;;;;0.12;84.37;100791.34;5032821;28;20024;-83
2022/04/01 08:30:11;;;;;;;7.88;4.88;;;;;;;0.14;84.29;100797.38;5030980;28;20040;-83
2022/04/01 08:32:37;;;;;;;6.10;4.35;;;;;;;0.14;83.72;100798.19;5012769;28;20026;-83
2022/04/01 08:35:04;;;;;;;5.80;4.07;;;;;;;0.14;83.80;100800.81;5032053;28;20049;-83
2022/04/01 08:37:29;;;;;;;6.45;4.32;;;;;;;0.15;84.04;100804.28;5031860;28;20029;-83
2022/04/01 08:39:58;;;;;;;5.03;4.53;;;;;;;0.16;84.13;100812.06;5041696;28;20025;-83
2022/04/01 08:42:23;;;;;;;6.22;4.40;;;;;;;0.16;83.44;100811.22;5031868;28;20021;-83
2022/04/01 08:44:49;;;;;;;4.32;3.75;;;;;;;0.16;83.43;100817.28;5033348;28;20018;-83
2022/04/01 08:47:14;;;;;;;3.85;3.55;;;;;;;0.18;82.52;100825.06;5031873;28;20025;-83
2022/04/01 08:49:40;;;;;;;4.32;3.55;;;;;;;0.17;83.00;100831.22;5031888;28;20056;-83
2022/04/01 08:52:06;;;;;;;4.82;3.22;;;;;;;0.16;82.54;100830.34;5032889;28;20021;-82
2022/04/01 08:54:33;;;;;;;4.80;3.83;;;;;;;0.17;83.01;100834.66;5031363;28;20091;-83
2022/04/01 08:56:58;;;;;;;4.72;4.07;;;;;;;0.20;83.15;100845.91;5014745;28;20034;-83
2022/04/01 08:59:31;;;;;;;4.57;3.53;;;;;;;0.21;82.89;100831.97;5032803;28;20037;-82
2022/04/01 09:02:10;;;;;;;5.38;3.70;;;;;;;0.24;82.12;100848.38;5031475;28;20404;-83
2022/04/01 09:04:36;;;;;;;5.22;3.55;;;;;;;0.28;81.89;100854.34;5020560;28;20442;-83
2022/04/01 09:07:13;;;;;;;7.15;3.75;;;;;;;0.32;82.10;100861.19;5029157;28;20400;-83
2022/04/01 09:09:39;;;;;;;5.97;4.00;;;;;;;0.29;82.09;100859.53;5028502;28;20021;-83
2022/04/01 09:12:12;;;;;;;6.15;3.53;;;;;;;0.31;81.53;100856.88;5012166;28;20030;-83
2022/04/01 09:14:39;;;;;;;3.45;3.15;;;;;;;0.32;81.89;100859.44;5012420;28;20049;-83
2022/04/01 09:17:06;;;;;;;6.55;3.85;;;;;;;0.36;82.34;100857.56;5013647;28;20025;-84
2022/04/01 09:19:33;;;;;;;4.60;3.88;;;;;;;0.39;82.55;100864.44;4995655;28;20025;-84
2022/04/01 09:22:15;;;;;;;4.93;3.42;;;;;;;0.42;83.10;100862.59;5028190;28;20022;-83
2022/04/01 09:25:02;;;;;;;4.03;3.45;;;;;;;0.48;83.07;100864.13;5029608;28;20068;-83
2022/04/01 09:27:46;;;;;;;3.50;3.20;;;;;;;0.45;81.84;100872.06;5029003;28;20034;-83
2022/04/01 09:30:24;;;;;;;6.80;3.65;;;;;;;0.49;83.07;100871.91;5014072;28;20128;-83
2022/04/01 09:32:55;;;;;;;3.65;3.22;;;;;;;0.52;82.92;100869.19;5030185;28;20018;-83
2022/04/01 09:35:24;;;;;;;3.75;3.35;;;;;;;0.55;83.20;100883.94;5010658;28;20030;-83
2022/04/01 09:37:52;;;;;;;4.53;3.38;;;;;;;0.56;82.39;100877.78;5011483;28;20026;-84
2022/04/01 09:40:20;;;;;;;8.48;3.55;;;;;;;0.59;82.84;100880.28;5028303;28;20025;-83
2022/04/01 09:42:54;;;;;;;4.68;3.42;;;;;;;0.63;82.74;100879.25;4995491;28;20026;-84
2022/04/01 09:45:35;;;;;;;5.28;3.10;;;;;;;0.66;82.21;100888.78;5028794;28;20057;-84
2022/04/01 09:48:06;;;;;;;4.65;3.15;;;;;;;0.68;81.92;100882.59;5011854;28;20033;-84
2022/04/01 09:50:37;;;;;;;4.50;3.22;;;;;;;0.73;80.90;100895.47;5012034;28;20341;-83
2022/04/01 09:53:21;;;;;;;4.60;3.00;;;;;;;0.74;80.64;100887.59;5013019;28;20034;-84
2022/04/01 09:55:49;;;;;;;5.30;3.08;;;;;;;0.74;80.56;100894.59;5036122;28;20056;-85
2022/04/01 09:58:18;;;;;;;4.65;3.08;;;;;;;0.75;81.79;100885.84;5024084;28;20153;-84
2022/04/01 10:00:45;;;;;;;3.13;2.83;;;;;;;0.76;81.43;100886.69;5002557;28;20026;-84
2022/04/01 10:03:12;;;;;;;4.78;3.03;;;;;;;0.79;81.24;100891.81;5013070;28;20038;-84
2022/04/01 10:05:45;;;;;;;3.20;2.95;;;;;;;0.78;80.78;100884.88;5011540;28;20028;-83
2022/04/01 10:08:12;;;;;;;3.53;2.83;;;;;;;0.78;81.71;100890.94;5011330;28;20033;-84
2022/04/01 10:10:39;;;;;;;3.65;2.90;;;;;;;0.81;81.45;100895.22;5011337;28;20028;-84
2022/04/01 10:13:13;;;;;;;4.63;3.10;;;;;;;0.82;81.63;100895.19;5011434;28;20026;-84
2022/04/01 10:15:42;;;;;;;4.90;2.65;;;;;;;0.85;81.43;100891.59;5014468;28;20033;-84
2022/04/01 10:18:08;;;;;;;3.60;3.30;;;;;;;0.87;81.88;100895.88;5031257;28;20067;-84
2022/04/01 10:20:37;;;;;;;3.05;2.75;;;;;;;0.89;80.84;100891.44;5031308;28;20033;-83
2022/04/01 10:23:08;;;;;;;3.03;2.78;;;;;;;0.89;81.69;100899.28;5025879;28;20022;-84
2022/04/01 10:25:44;;;;;;;4.10;2.60;;;;;;;0.89;81.06;100901.88;5011020;28;20112;-84
2022/04/01 10:28:13;;;;;;;5.28;2.95;;;;;;;0.88;80.70;100902.81;5011126;28;20060;-84
2022/04/01 10:30:40;;;;;;;3.97;2.60;;;;;;;0.89;80.43;100899.28;5049195;28;20048;-83
2022/04/01 10:33:07;;;;;;;2.95;2.67;;;;;;;0.94;81.52;100903.50;5052530;28;20360;-84
2022/04/01 10:35:38;;;;;;;4.22;3.05;;;;;;;0.97;81.55;100906.00;5052198;28;20025;-84
2022/04/01 10:38:06;;;;;;;3.05;2.75;;;;;;;0.96;80.68;100897.28;5051242;28;20067;-84
2022/04/01 10:40:44;;;;;;;3.67;3.10;;;;;;;0.95;80.98;100894.72;5051583;28;20036;-84
2022/04/01 10:43:44;;;;;;;3.65;3.13;;;;;;;1.02;80.80;100901.47;5038606;28;20041;-83
2022/04/01 10:46:14;;;;;;;4.28;2.80;;;;;;;1.00;80.34;100909.38;4999118;28;20112;-84
2022/04/01 10:52:18;;;;;;;5.55;2.88;;;;;;;1.07;80.51;100915.22;5044820;28;20044;-84
2022/04/01 10:54:49;;;;;;;4.10;3.03;;;;;;;1.03;80.89;100909.25;5035746;28;20032;-83
2022/04/01 10:57:37;;;;;;;4.18;3.15;;;;;;;1.10;80.41;100917.75;5034456;28;20036;-84
2022/04/01 11:00:13;;;;;;;4.95;3.58;;;;;;;1.09;80.12;100911.63;5035278;28;20048;-84
2022/04/01 11:02:39;;;;;;;3.97;3.50;;;;;;;1.11;80.60;100922.88;5033746;28;20045;-85
2022/04/01 11:05:33;;;;;;;5.38;3.15;;;;;;;1.17;80.75;100927.06;5034863;28;20025;-84
2022/04/01 11:08:22;;;;;;;4.18;3.25;;;;;;;1.18;80.65;100923.53;5035180;28;20059;-84
2022/04/01 11:11:07;;;;;;;5.75;3.15;;;;;;;1.17;80.90;100926.22;5034668;28;20068;-85
2022/04/01 11:13:32;;;;;;;4.03;3.53;;;;;;;1.19;77.83;100927.00;5033549;28;20037;-85
2022/04/01 11:16:20;;;;;;;5.30;3.70;;;;;;;1.21;79.23;100933.88;5018246;28;20037;-85
2022/04/01 11:19:25;;;;;;;5.18;3.95;;;;;;;1.24;77.26;100933.78;5035309;28;20033;-83
2022/04/01 11:21:50;;;;;;;4.85;4.00;;;;;;;1.18;75.95;100926.13;5015316;28;20362;-84
2022/04/01 11:24:31;;;;;;;6.00;4.25;;;;;;;1.21;76.47;100930.41;5015283;28;20073;-83
2022/04/01 11:27:23;;;;;;;4.15;3.55;;;;;;;1.20;77.28;100942.66;5025462;28;20053;-82
2022/04/01 11:30:07;;;;;;;3.95;3.65;;;;;;;1.25;78.71;100945.97;5024171;28;20033;-82
2022/04/01 11:32:37;;;;;;;6.20;3.97;;;;;;;1.24;78.10;100952.09;5020735;28;20077;-83
2022/04/01 11:35:04;;;;;;;4.80;4.03;;;;;;;1.23;78.17;100950.41;5032944;28;20022;-82
2022/04/01 11:37:36;;;;;;;5.70;4.20;;;;;;;1.24;79.24;100939.00;5034602;28;20452;-81
2022/04/01 11:40:19;;;;;;;5.95;4.35;;;;;;;1.26;79.43;100939.78;5034075;28;20025;-81
2022/04/01 11:42:59;;;;;;;6.22;4.18;;;;;;;1.27;78.52;100945.91;5032352;28;20040;-80
2022/04/01 11:45:26;;;;;;;5.72;3.83;;;;;;;1.27;79.16;100948.53;5030958;28;20029;-81
2022/04/01 11:47:52;;;;;;;5.10;4.40;;;;;;;1.30;79.69;100943.19;5032984;28;20041;-81
2022/04/01 11:50:21;;;;;;;5.75;4.15;;;;;;;1.31;78.90;100947.50;5028060;28;20389;-80
2022/04/01 11:52:49;;;;;;;7.53;4.55;;;;;;;1.32;79.04;100948.38;5024723;28;20169;-81
2022/04/01 11:55:17;;;;;;;6.10;4.50;;;;;;;1.32;78.48;100945.75;5031736;28;20155;-81
2022/04/01 11:57:44;;;;;;;5.97;5.10;;;;;;;1.34;79.39;100959.63;5018074;28;20050;-80